Time;durP1;ratioP1;P1;durP2;ratioP2;P2;SDS_P1;SDS_P2;PMS_P1;PMS_P2;Temp;Humidity;BMP_temperature;BMP_pressure;BME280_temperature;BME280_humidity;BME280_pressure;Samples;Min_cycle;Max_cycle;Signal;HPM_P1;HPM_P2
2022/03/19 00:00:34;;;;;;;21.25;4.90;;;;;;;8.96;39.35;103918.69;5032795;28;20057;-74
2022/03/19 00:03:01;;;;;;;22.05;5.20;;;;;;;8.83;39.66;103925.56;5032218;28;20049;-74
2022/03/19 00:05:27;;;;;;;24.85;5.68;;;;;;;9.82;37.89;103922.63;5032812;28;20069;-74
2022/03/19 00:07:55;;;;;;;23.50;5.18;;;;;;;9.08;38.98;103923.47;5032360;28;20090;-73
2022/03/19 00:10:22;;;;;;;25.98;5.78;;;;;;;8.38;40.70;103919.50;5032430;28;20045;-73
2022/03/19 00:12:49;;;;;;;19.88;4.88;;;;;;;9.20;38.88;103915.81;5032243;28;20435;-73
2022/03/19 00:15:19;;;;;;;17.70;4.13;;;;;;;8.89;39.55;103916.38;5032627;28;20049;-74
2022/03/19 00:17:46;;;;;;;29.08;5.43;;;;;;;9.03;39.29;103914.78;5032163;28;20100;-74
2022/03/19 00:20:12;;;;;;;27.17;5.43;;;;;;;9.09;38.85;103918.97;5031952;28;20088;-73
2022/03/19 00:22:39;;;;;;;25.45;4.82;;;;;;;8.93;39.44;103917.97;5032266;28;20481;-73
2022/03/19 00:25:08;;;;;;;27.20;6.18;;;;;;;9.14;39.09;103911.59;5021164;28;20133;-74
2022/03/19 00:27:34;;;;;;;31.13;4.82;;;;;;;8.49;39.83;103918.16;5032002;28;20124;-74
2022/03/19 00:30:01;;;;;;;25.60;4.53;;;;;;;8.84;39.56;103916.56;5031932;28;20077;-74
2022/03/19 00:32:28;;;;;;;31.48;4.85;;;;;;;8.87;39.33;103920.91;5032337;28;20488;-74
2022/03/19 00:34:54;;;;;;;19.85;4.75;;;;;;;8.53;39.41;103920.63;5031839;28;20069;-73
2022/03/19 00:37:21;;;;;;;20.92;3.90;;;;;;;8.91;38.93;103918.03;5032059;28;20045;-73
2022/03/19 00:39:47;;;;;;;26.35;4.38;;;;;;;8.82;38.94;103916.66;5031652;28;20128;-74
2022/03/19 00:42:14;;;;;;;23.23;4.93;;;;;;;8.45;39.68;103927.28;5031431;28;20517;-74
2022/03/19 00:44:40;;;;;;;23.75;5.00;;;;;;;8.51;39.70;103921.66;5031770;28;20071;-74
2022/03/19 00:47:06;;;;;;;19.98;4.45;;;;;;;8.20;40.04;103922.13;5031613;28;20069;-73
2022/03/19 00:49:33;;;;;;;22.48;4.70;;;;;;;8.45;39.87;103920.13;5031777;28;20485;-74
2022/03/19 00:52:00;;;;;;;29.15;5.45;;;;;;;8.24;40.09;103916.59;5032100;28;20065;-73
2022/03/19 00:54:26;;;;;;;22.60;5.28;;;;;;;8.47;39.44;103915.59;5032358;28;20052;-73
2022/03/19 00:56:53;;;;;;;27.13;5.40;;;;;;;8.04;40.59;103920.09;5032021;28;20083;-73
2022/03/19 00:59:19;;;;;;;22.25;4.80;;;;;;;8.46;39.67;103912.94;5032264;28;20444;-73
2022/03/19 01:01:46;;;;;;;28.80;4.50;;;;;;;8.38;39.69;103908.81;5031997;28;20055;-73
2022/03/19 01:04:13;;;;;;;18.50;4.30;;;;;;;8.12;40.05;103909.97;5031648;28;20096;-73
2022/03/19 01:06:40;;;;;;;25.92;4.68;;;;;;;8.38;40.00;103911.50;5031839;28;20072;-74
2022/03/19 01:09:06;;;;;;;24.73;4.60;;;;;;;8.74;39.02;103902.72;5031365;28;20052;-73
2022/03/19 01:11:33;;;;;;;18.52;4.88;;;;;;;8.03;40.42;103905.00;5031679;28;20045;-73
2022/03/19 01:13:59;;;;;;;25.70;4.80;;;;;;;7.69;41.17;103901.97;5031743;28;20132;-73
2022/03/19 01:16:26;;;;;;;18.80;4.80;;;;;;;8.16;40.34;103909.81;5031428;28;20041;-74
2022/03/19 01:18:53;;;;;;;20.25;4.97;;;;;;;8.61;39.54;103901.56;5031471;28;20489;-73
2022/03/19 01:21:19;;;;;;;26.95;4.75;;;;;;;8.13;40.59;103900.13;5031358;28;20076;-73
2022/03/19 01:23:46;;;;;;;24.58;4.65;;;;;;;8.58;39.71;103901.72;5031322;28;20045;-72
2022/03/19 01:26:12;;;;;;;25.52;4.78;;;;;;;8.71;39.47;103902.91;5031126;28;20124;-73
2022/03/19 01:28:39;;;;;;;18.60;4.68;;;;;;;8.74;39.31;103901.88;5031510;28;20124;-73
2022/03/19 01:31:05;;;;;;;19.30;4.35;;;;;;;8.37;40.09;103898.19;5013779;28;20060;-73
2022/03/19 01:33:32;;;;;;;25.90;5.07;;;;;;;8.34;40.06;103892.97;5014782;28;20490;-73
2022/03/19 01:35:58;;;;;;;19.67;4.88;;;;;;;8.40;39.92;103892.72;5035595;28;20133;-73
2022/03/19 01:38:25;;;;;;;21.23;4.68;;;;;;;8.50;39.93;103885.97;5035336;28;20450;-73
2022/03/19 01:40:51;;;;;;;22.77;4.43;;;;;;;8.41;40.00;103883.75;5035079;28;21236;-72
2022/03/19 01:43:18;;;;;;;25.58;5.22;;;;;;;8.61;39.72;103881.03;5034999;28;20509;-74
2022/03/19 01:45:44;;;;;;;23.02;5.32;;;;;;;8.61;39.67;103875.69;5017369;28;20129;-73
2022/03/19 01:48:11;;;;;;;34.00;5.90;;;;;;;8.79;39.32;103875.78;5030670;28;20057;-72
2022/03/19 01:50:37;;;;;;;27.42;5.10;;;;;;;8.73;39.60;103873.38;5034598;28;20128;-73
2022/03/19 01:53:04;;;;;;;25.05;5.03;;;;;;;8.88;39.38;103872.63;5034710;28;20128;-73
2022/03/19 01:55:32;;;;;;;21.65;5.28;;;;;;;8.60;39.93;103865.88;5035296;28;20083;-73
2022/03/19 01:58:01;;;;;;;16.42;4.75;;;;;;;8.70;39.62;103866.34;5030947;28;20153;-74
2022/03/19 02:00:28;;;;;;;17.55;4.82;;;;;;;8.84;39.58;103863.03;5035384;28;20125;-74
2022/03/19 02:02:56;;;;;;;19.88;4.50;;;;;;;8.52;40.18;103860.03;5035039;28;20121;-74
2022/03/19 02:09:09;;;;;;;34.03;5.32;;;;;;;9.04;38.96;103862.94;5033955;28;20048;-74
2022/03/19 02:11:36;;;;;;;20.63;4.55;;;;;;;8.55;40.18;103857.22;5034263;28;20050;-74
2022/03/19 02:14:03;;;;;;;28.15;5.75;;;;;;;8.95;39.23;103852.66;5034171;28;20076;-73
2022/03/19 02:16:30;;;;;;;30.73;5.75;;;;;;;8.50;40.36;103858.34;5031859;28;20129;-73
2022/03/19 02:18:58;;;;;;;25.75;6.00;;;;;;;8.76;39.82;103849.13;5014325;28;20057;-73
2022/03/19 02:21:24;;;;;;;24.33;4.53;;;;;;;8.20;40.95;103852.59;5015259;28;20121;-74
2022/03/19 02:26:44;;;;;;;20.20;5.45;;;;;;;8.47;40.61;103851.38;4994982;28;20124;-74
2022/03/19 02:29:11;;;;;;;16.40;4.82;;;;;;;8.32;41.21;103836.00;4994836;28;20142;-74
2022/03/19 02:31:42;;;;;;;20.58;5.07;;;;;;;8.34;40.96;103836.78;4994079;28;20486;-74
2022/03/19 02:34:09;;;;;;;31.67;6.03;;;;;;;8.52;40.72;103843.97;4994330;28;20177;-74
2022/03/19 02:36:36;;;;;;;22.48;5.32;;;;;;;8.58;40.52;103837.50;4993265;28;20526;-74
2022/03/19 02:39:28;;;;;;;30.38;5.10;;;;;;;8.63;40.57;103839.94;4994449;28;20398;-74
2022/03/19 02:41:56;;;;;;;25.25;5.88;;;;;;;8.50;40.50;103844.97;4974663;28;20043;-74
2022/03/19 02:44:22;;;;;;;19.42;4.97;;;;;;;8.40;40.98;103838.31;4974477;28;20062;-74
2022/03/19 02:46:51;;;;;;;20.88;5.35;;;;;;;8.23;41.02;103831.94;4974568;28;20070;-74
2022/03/19 02:49:18;;;;;;;26.83;5.50;;;;;;;8.42;40.87;103826.59;4996872;28;20059;-74
2022/03/19 02:51:47;;;;;;;26.27;5.82;;;;;;;8.06;41.39;103826.47;5026203;28;20071;-74
2022/03/19 02:54:15;;;;;;;20.13;4.90;;;;;;;8.45;40.75;103826.47;5032406;28;20079;-74
2022/03/19 02:56:43;;;;;;;27.17;5.50;;;;;;;8.34;41.11;103820.75;5021870;28;20133;-73
2022/03/19 02:59:13;;;;;;;25.58;6.18;;;;;;;7.89;42.18;103827.19;5033108;28;20041;-73
2022/03/19 03:01:40;;;;;;;20.27;6.20;;;;;;;8.29;41.32;103820.94;5033433;28;20070;-74
2022/03/19 03:04:07;;;;;;;23.23;5.70;;;;;;;8.21;41.59;103817.75;5033565;28;20076;-74
2022/03/19 03:06:35;;;;;;;32.78;6.05;;;;;;;8.09;42.01;103821.00;5033387;28;20092;-74
2022/03/19 03:09:03;;;;;;;26.23;5.25;;;;;;;8.19;41.24;103814.25;5033529;28;20134;-74
2022/03/19 03:11:30;;;;;;;24.55;5.50;;;;;;;8.03;41.67;103821.25;5033010;28;20080;-74
2022/03/19 03:13:57;;;;;;;30.27;5.63;;;;;;;8.12;41.74;103821.72;5032976;28;20124;-75
2022/03/19 03:16:27;;;;;;;28.40;5.18;;;;;;;7.82;42.52;103817.69;5031357;28;20049;-75
2022/03/19 03:18:55;;;;;;;27.20;5.45;;;;;;;7.68;43.11;103820.09;5032773;28;20504;-75
2022/03/19 03:21:22;;;;;;;26.88;5.25;;;;;;;8.03;42.48;103819.44;5032240;28;20050;-75
2022/03/19 03:23:49;;;;;;;37.92;7.10;;;;;;;7.74;43.11;103809.09;5032825;28;20055;-75
2022/03/19 03:26:15;;;;;;;22.38;5.57;;;;;;;7.44;43.67;103825.53;5024603;28;20068;-75
2022/03/19 03:28:42;;;;;;;26.85;6.22;;;;;;;7.58;43.43;103822.28;5014708;28;20461;-75
2022/03/19 03:31:08;;;;;;;23.52;5.68;;;;;;;7.77;43.06;103819.66;5032168;28;20461;-75
2022/03/19 03:33:35;;;;;;;29.65;6.30;;;;;;;7.21;44.26;103823.78;5032794;28;20405;-75
2022/03/19 03:36:02;;;;;;;27.05;6.65;;;;;;;7.16;44.81;103815.09;5031764;28;20152;-75
2022/03/19 03:38:28;;;;;;;35.40;6.43;;;;;;;7.05;44.64;103806.63;5020748;28;20128;-75
2022/03/19 03:40:54;;;;;;;28.02;6.15;;;;;;;7.41;44.09;103814.97;5025469;28;20048;-74
2022/03/19 03:43:21;;;;;;;25.35;5.65;;;;;;;6.99;44.97;103813.09;5011075;28;20128;-74
2022/03/19 03:45:48;;;;;;;28.00;5.95;;;;;;;7.04;45.01;103821.78;5011375;28;20125;-74
2022/03/19 03:48:14;;;;;;;38.78;6.68;;;;;;;7.09;44.73;103817.16;5011099;28;20070;-74
2022/03/19 03:50:41;;;;;;;25.30;5.38;;;;;;;7.55;43.81;103825.06;5012383;28;20125;-74
2022/03/19 03:53:08;;;;;;;22.75;5.63;;;;;;;7.08;44.96;103823.41;5012119;28;20076;-74
2022/03/19 03:55:37;;;;;;;25.65;5.47;;;;;;;7.10;44.81;103818.00;5009236;28;20062;-73
2022/03/19 03:58:04;;;;;;;23.75;5.38;;;;;;;7.30;44.27;103819.88;5014250;28;20046;-73
2022/03/19 04:00:31;;;;;;;18.25;4.93;;;;;;;7.17;44.67;103823.03;5014488;28;20073;-74
2022/03/19 04:02:58;;;;;;;17.88;5.18;;;;;;;7.31;44.13;103818.94;5012663;28;20052;-74
2022/03/19 04:05:25;;;;;;;26.05;5.65;;;;;;;7.34;43.95;103819.69;4995026;28;20120;-74
2022/03/19 04:07:52;;;;;;;35.67;5.85;;;;;;;7.57;43.55;103824.06;5012063;28;20133;-74
2022/03/19 04:10:18;;;;;;;28.30;6.40;;;;;;;7.49;43.64;103822.66;5018584;28;20136;-74
2022/03/19 04:12:45;;;;;;;22.52;6.63;;;;;;;7.46;43.59;103830.78;5031990;28;20497;-73
2022/03/19 04:15:11;;;;;;;31.52;5.32;;;;;;;6.97;44.76;103830.09;5088514;22;20048;-76
2022/03/19 04:17:38;;;;;;;25.70;5.72;;;;;;;6.99;44.83;103837.13;5030974;28;20099;-76
2022/03/19 04:20:08;;;;;;;22.63;5.65;;;;;;;7.15;44.53;103830.25;5032489;28;20128;-76
2022/03/19 04:22:37;;;;;;;32.03;5.72;;;;;;;7.31;44.01;103821.59;5031552;28;20076;-76
2022/03/19 04:25:08;;;;;;;25.38;5.70;;;;;;;7.00;44.48;103814.84;5030936;28;20076;-76
2022/03/19 04:27:35;;;;;;;;;;;;;;;6.56;45.68;103813.88;5031074;28;20083;-76
2022/03/19 04:30:02;;;;;;;32.15;5.47;;;;;;;6.74;45.36;103818.53;5032018;28;19927;-76
2022/03/19 04:32:28;;;;;;;29.25;5.35;;;;;;;6.75;45.43;103816.75;5017963;28;20463;-76
2022/03/19 04:34:55;;;;;;;22.98;5.22;;;;;;;6.78;45.32;103816.63;5011589;28;20042;-75
2022/03/19 04:37:21;;;;;;;27.95;4.85;;;;;;;7.24;43.97;103812.97;5012579;28;20085;-75
2022/03/19 04:39:48;;;;;;;23.13;4.80;;;;;;;7.30;43.94;103814.53;5010622;28;20506;-75
2022/03/19 04:42:15;;;;;;;30.67;5.63;;;;;;;7.19;44.07;103807.84;5011838;28;20078;-75
2022/03/19 04:44:42;;;;;;;26.10;5.35;;;;;;;6.89;44.48;103804.59;5011304;28;20076;-75
2022/03/19 04:47:09;;;;;;;22.88;5.55;;;;;;;6.43;45.72;103810.84;5011608;28;20058;-75
2022/03/19 04:49:35;;;;;;;16.85;4.40;;;;;;;7.00;44.38;103809.50;5012510;28;20433;-75
2022/03/19 04:52:02;;;;;;;17.73;4.53;;;;;;;6.87;44.61;103814.44;5031982;28;20045;-75
2022/03/19 04:54:28;;;;;;;25.75;5.50;;;;;;;7.08;44.42;103818.06;5031125;28;20091;-75
2022/03/19 04:56:55;;;;;;;36.13;5.15;;;;;;;7.00;44.24;103808.63;5030426;28;20393;-75
2022/03/19 04:59:21;;;;;;;26.30;5.07;;;;;;;7.11;44.29;103811.72;5031711;28;20069;-75
2022/03/19 05:01:48;;;;;;;21.80;5.53;;;;;;;6.90;44.33;103806.31;5030795;28;20050;-75
2022/03/19 05:04:14;;;;;;;36.42;5.55;;;;;;;7.06;44.10;103819.94;5030374;28;20119;-75
2022/03/19 05:06:41;;;;;;;25.10;5.60;;;;;;;7.15;44.18;103808.91;5030907;28;20140;-75
2022/03/19 05:11:54;;;;;;;27.50;5.57;;;;;;;7.58;42.61;103807.09;5055362;28;20458;-75
2022/03/19 05:14:21;;;;;;;20.05;5.20;;;;;;;7.34;43.78;103806.31;5073828;28;20044;-75
2022/03/19 05:16:47;;;;;;;23.02;5.07;;;;;;;6.94;44.28;103804.41;5074903;28;20040;-75
2022/03/19 05:19:14;;;;;;;31.67;5.78;;;;;;;7.17;43.82;103800.81;5075078;28;20590;-76
2022/03/19 05:21:40;;;;;;;21.65;4.88;;;;;;;7.17;43.99;103807.00;5075540;28;20064;-77
2022/03/19 05:24:07;;;;;;;18.45;5.50;;;;;;;6.78;44.97;103811.28;5071021;28;20155;-76
2022/03/19 05:26:38;;;;;;;24.35;5.60;;;;;;;6.89;44.40;103817.06;5075045;28;20123;-76
2022/03/19 05:29:04;;;;;;;21.27;5.60;;;;;;;6.89;44.61;103820.59;5075539;28;20068;-76
2022/03/19 05:31:34;;;;;;;23.10;5.45;;;;;;;6.60;45.29;103811.06;5074752;28;20044;-76
2022/03/19 05:36:47;;;;;;;25.08;4.90;;;;;;;6.60;45.19;103811.06;5074797;28;20048;-76
2022/03/19 05:39:13;;;;;;;29.67;6.00;;;;;;;6.94;44.61;103815.06;5070626;28;20079;-75
2022/03/19 05:41:40;;;;;;;30.88;5.75;;;;;;;6.93;44.68;103810.66;5067414;28;20052;-77
2022/03/19 05:44:07;;;;;;;24.90;5.70;;;;;;;7.11;44.34;103807.25;5058216;28;20053;-75
2022/03/19 05:46:34;;;;;;;21.95;5.32;;;;;;;7.53;43.66;103808.22;5054178;28;20164;-75
2022/03/19 05:49:00;;;;;;;23.50;4.53;;;;;;;7.03;44.25;103812.03;5037079;28;20135;-76
2022/03/19 05:51:27;;;;;;;25.45;5.90;;;;;;;7.29;44.07;103811.00;5053550;28;20140;-76
2022/03/19 05:53:53;;;;;;;24.50;5.63;;;;;;;6.95;44.69;103812.34;5054312;28;20065;-76
2022/03/19 05:56:20;;;;;;;25.17;5.97;;;;;;;7.15;44.26;103818.69;5053757;28;20205;-76
2022/03/19 05:58:46;;;;;;;25.38;6.20;;;;;;;7.06;44.25;103819.94;5054565;28;20052;-76
2022/03/19 06:01:13;;;;;;;25.10;5.53;;;;;;;6.78;44.72;103817.50;5053478;28;20551;-76
2022/03/19 06:03:39;;;;;;;24.85;5.38;;;;;;;6.70;45.09;103823.13;5054370;28;20057;-76
2022/03/19 06:06:06;;;;;;;22.38;5.13;;;;;;;6.50;45.49;103830.16;5053519;28;20146;-76
2022/03/19 06:08:32;;;;;;;31.92;6.05;;;;;;;6.48;45.72;103831.06;5053828;28;20045;-76
2022/03/19 06:10:59;;;;;;;28.17;5.03;;;;;;;6.84;44.85;103830.59;5054448;28;20132;-76
2022/03/19 06:13:26;;;;;;;17.38;4.82;;;;;;;6.99;44.75;103823.78;5052568;28;20162;-76
2022/03/19 06:15:52;;;;;;;20.25;4.95;;;;;;;6.89;44.93;103833.09;5053526;28;20045;-76
2022/03/19 06:18:19;;;;;;;26.05;4.97;;;;;;;7.16;44.39;103825.78;5053436;28;20141;-75
2022/03/19 06:20:45;;;;;;;28.92;4.93;;;;;;;7.01;44.72;103832.59;5051677;28;20124;-76
2022/03/19 06:23:12;;;;;;;27.83;5.68;;;;;;;6.85;45.00;103834.13;5054394;28;20052;-76
2022/03/19 06:25:39;;;;;;;24.33;4.35;;;;;;;6.78;45.28;103824.63;5053247;28;20130;-76
2022/03/19 06:28:05;;;;;;;20.98;5.05;;;;;;;7.18;44.35;103823.91;5054042;28;20516;-76
2022/03/19 06:30:37;;;;;;;26.05;5.47;;;;;;;7.16;44.39;103821.31;5053783;28;20087;-76
2022/03/19 06:33:04;;;;;;;23.33;4.85;;;;;;;7.27;43.87;103828.00;5052541;28;20128;-76
2022/03/19 06:38:17;;;;;;;24.48;3.90;;;;;;;6.60;45.41;103820.84;5056793;28;20052;-76
2022/03/19 06:40:44;;;;;;;22.70;4.25;;;;;;;6.90;44.96;103834.81;5054406;28;20135;-76
2022/03/19 06:43:10;;;;;;;15.02;3.85;;;;;;;7.22;44.29;103824.66;5053775;28;20045;-76
2022/03/19 06:45:38;;;;;;;24.65;4.63;;;;;;;7.36;44.25;103822.28;5052315;28;20068;-75
2022/03/19 06:48:05;;;;;;;23.75;4.75;;;;;;;7.25;44.13;103813.84;5052749;28;20069;-76
2022/03/19 06:50:32;;;;;;;20.83;4.55;;;;;;;7.81;42.92;103818.59;5045195;28;20049;-76
2022/03/19 06:52:58;;;;;;;17.42;4.03;;;;;;;8.33;42.01;103819.00;5052682;28;20095;-76
2022/03/19 06:55:25;;;;;;;19.52;4.85;;;;;;;8.95;40.46;103815.19;5046191;28;20497;-77
2022/03/19 06:57:52;;;;;;;18.13;3.50;;;;;;;8.14;42.04;103814.47;5056883;28;20083;-76
2022/03/19 07:00:18;;;;;;;18.23;3.40;;;;;;;8.65;40.89;103816.66;5058805;28;20480;-76
2022/03/19 07:02:49;;;;;;;19.90;4.25;;;;;;;8.59;40.94;103812.44;5060458;28;20069;-78
2022/03/19 07:05:26;;;;;;;16.85;4.05;;;;;;;8.95;40.04;103812.50;5054049;28;20098;-76
2022/03/19 07:07:54;;;;;;;20.95;4.28;;;;;;;8.96;40.11;103816.94;5052760;28;20568;-76
2022/03/19 07:10:21;;;;;;;20.58;4.55;;;;;;;8.78;40.17;103812.44;5052018;28;20045;-76
2022/03/19 07:12:51;;;;;;;12.85;4.40;;;;;;;9.64;38.89;103805.56;5052706;28;20049;-76
2022/03/19 07:15:19;;;;;;;25.85;5.82;;;;;;;9.88;38.27;103815.00;5052993;28;20045;-76
2022/03/19 07:17:46;;;;;;;24.90;4.45;;;;;;;10.28;37.47;103810.22;5054005;28;20484;-75
2022/03/19 07:20:14;;;;;;;18.98;3.65;;;;;;;10.23;37.21;103804.22;5053462;28;20056;-75
2022/03/19 07:22:47;;;;;;;20.40;3.60;;;;;;;10.71;36.62;103797.16;5055328;28;20132;-75
2022/03/19 07:25:13;;;;;;;13.07;3.65;;;;;;;11.69;34.88;103794.19;5055574;28;20073;-75
2022/03/19 07:27:40;;;;;;;14.75;3.33;;;;;;;12.38;33.24;103798.84;5036334;28;20489;-75
2022/03/19 07:30:07;;;;;;;13.63;3.50;;;;;;;12.44;33.08;103794.03;5053072;28;20072;-75
2022/03/19 07:32:33;;;;;;;23.75;4.28;;;;;;;12.54;32.81;103795.16;5053571;28;20462;-75
2022/03/19 07:35:00;;;;;;;17.50;4.18;;;;;;;12.13;33.65;103790.56;5054280;28;20052;-75
2022/03/19 07:37:27;;;;;;;12.30;3.28;;;;;;;12.23;32.73;103794.41;5054334;28;20052;-75
2022/03/19 07:39:55;;;;;;;15.85;4.03;;;;;;;12.16;33.45;103796.63;5057121;28;20132;-75
2022/03/19 07:42:22;;;;;;;12.40;3.42;;;;;;;11.70;33.96;103793.22;5058360;28;20076;-75
2022/03/19 07:44:48;;;;;;;19.90;3.53;;;;;;;11.68;34.03;103789.75;5057822;28;20127;-75
2022/03/19 07:47:15;;;;;;;17.88;3.30;;;;;;;11.73;33.96;103787.66;5055403;28;20124;-76
2022/03/19 07:49:43;;;;;;;17.63;3.80;;;;;;;11.46;34.70;103801.75;5043404;28;20052;-76
2022/03/19 07:52:10;;;;;;;16.95;4.10;;;;;;;12.11;33.63;103792.50;5053730;28;20486;-76
2022/03/19 07:54:37;;;;;;;23.02;4.00;;;;;;;11.35;34.59;103796.16;5051980;28;20045;-76
2022/03/19 07:57:04;;;;;;;21.15;3.78;;;;;;;11.76;33.95;103787.47;5052749;28;20055;-76
2022/03/19 07:59:31;;;;;;;17.63;3.20;;;;;;;11.57;34.29;103789.50;5052566;28;20128;-76
2022/03/19 08:01:57;;;;;;;20.35;4.03;;;;;;;12.16;33.23;103785.00;5052805;28;20440;-76
2022/03/19 08:04:25;;;;;;;13.30;4.07;;;;;;;12.88;32.42;103789.34;5047884;28;20056;-76
2022/03/19 08:06:55;;;;;;;17.35;3.45;;;;;;;13.00;32.05;103789.50;5053373;28;20533;-76
2022/03/19 08:09:26;;;;;;;19.50;3.58;;;;;;;13.49;31.06;103783.50;5051563;28;20124;-76
2022/03/19 08:11:52;;;;;;;22.58;3.33;;;;;;;13.98;30.35;103783.72;5051583;28;20045;-76
2022/03/19 08:14:19;;;;;;;17.63;3.63;;;;;;;13.12;31.38;103775.22;5052147;28;20051;-76
2022/03/19 08:16:49;;;;;;;14.43;3.30;;;;;;;13.19;31.35;103770.28;5050311;28;20079;-77
2022/03/19 08:19:15;;;;;;;21.05;3.97;;;;;;;12.31;32.62;103789.41;5051245;28;20049;-76
2022/03/19 08:21:45;;;;;;;13.50;3.22;;;;;;;11.96;33.13;103788.06;5051257;28;20128;-77
2022/03/19 08:24:12;;;;;;;14.02;3.30;;;;;;;11.28;34.22;103783.16;5051850;28;20106;-77
2022/03/19 08:26:39;;;;;;;14.38;3.05;;;;;;;12.30;32.90;103782.28;5051361;28;20585;-77
2022/03/19 08:29:06;;;;;;;11.77;2.88;;;;;;;13.27;31.34;103792.19;5034194;28;20464;-77
2022/03/19 08:31:33;;;;;;;15.52;3.50;;;;;;;13.40;30.74;103794.94;5051903;28;20125;-77
2022/03/19 08:34:00;;;;;;;14.00;3.55;;;;;;;12.19;32.33;103790.19;5055834;28;20049;-76
2022/03/19 08:36:26;;;;;;;17.55;3.50;;;;;;;11.25;34.49;103796.78;5069680;28;20049;-76
2022/03/19 08:41:37;;;;;;;20.10;3.20;;;;;;;9.27;38.28;103794.91;5071249;28;20120;-76
2022/03/19 08:44:05;;;;;;;12.05;2.90;;;;;;;10.56;36.54;103787.28;5071645;28;20458;-75
2022/03/19 08:46:31;;;;;;;14.50;2.70;;;;;;;12.07;33.33;103773.00;5071468;28;20527;-75
2022/03/19 08:48:58;;;;;;;17.70;3.92;;;;;;;12.69;32.80;103769.06;5054840;28;20139;-76
2022/03/19 08:51:40;;;;;;;23.38;4.38;;;;;;;13.19;31.54;103759.50;5062060;28;20430;-75
2022/03/19 08:54:18;;;;;;;18.85;3.38;;;;;;;13.40;31.04;103758.03;5073107;28;20127;-75
2022/03/19 08:56:46;;;;;;;11.27;3.17;;;;;;;13.31;31.36;103769.44;5073070;28;20047;-75
2022/03/19 08:59:13;;;;;;;20.15;4.25;;;;;;;14.83;29.28;103761.41;5072128;28;20048;-75
2022/03/19 09:01:40;;;;;;;16.23;3.60;;;;;;;13.80;30.34;103760.69;5064983;28;20072;-75
2022/03/19 09:04:07;;;;;;;11.88;3.30;;;;;;;15.01;28.79;103760.88;5072525;28;20044;-76
2022/03/19 09:06:34;;;;;;;15.95;3.85;;;;;;;14.57;29.01;103766.88;5071817;28;20484;-76
2022/03/19 09:09:02;;;;;;;16.63;3.25;;;;;;;13.83;29.90;103760.50;5071396;28;20107;-76
2022/03/19 09:11:31;;;;;;;19.85;3.97;;;;;;;13.50;30.67;103760.97;5072752;28;20388;-74
2022/03/19 09:13:58;;;;;;;17.02;3.85;;;;;;;13.34;31.07;103751.22;5071793;28;20461;-77
2022/03/19 09:16:25;;;;;;;17.45;3.42;;;;;;;14.12;29.83;103750.34;5071560;28;20102;-76
2022/03/19 09:18:52;;;;;;;14.48;3.35;;;;;;;14.07;29.69;103747.09;5072354;28;20508;-76
2022/03/19 09:21:19;;;;;;;9.38;3.33;;;;;;;14.48;29.27;103740.53;5071461;28;20060;-76
2022/03/19 09:23:46;;;;;;;14.07;2.85;;;;;;;13.70;30.41;103740.69;5071939;28;20051;-76
2022/03/19 09:26:12;;;;;;;13.85;3.75;;;;;;;14.24;29.94;103738.66;5071640;28;20102;-76
2022/03/19 09:28:39;;;;;;;19.52;2.97;;;;;;;14.13;29.61;103732.31;5068702;28;20124;-77
2022/03/19 09:31:06;;;;;;;14.05;3.20;;;;;;;14.33;29.43;103733.56;5053454;28;20127;-76
2022/03/19 09:33:33;;;;;;;15.52;3.58;;;;;;;13.27;30.66;103730.19;5050314;28;20049;-76
2022/03/19 09:36:01;;;;;;;11.73;2.78;;;;;;;14.45;29.25;103738.06;5051552;28;20049;-77
2022/03/19 09:38:32;;;;;;;14.15;3.20;;;;;;;15.08;28.27;103728.84;5034397;28;20143;-77
2022/03/19 09:40:59;;;;;;;16.10;4.30;;;;;;;15.33;27.60;103726.97;5064118;28;20083;-77
2022/03/19 09:43:27;;;;;;;19.05;3.85;;;;;;;15.27;27.86;103728.31;5070313;28;20052;-77
2022/03/19 09:45:53;;;;;;;15.73;3.60;;;;;;;15.17;27.98;103720.03;5066917;28;20046;-77
2022/03/19 09:48:20;;;;;;;14.32;3.42;;;;;;;15.09;27.92;103727.03;5071947;28;20408;-77
2022/03/19 09:50:51;;;;;;;13.65;2.72;;;;;;;13.19;29.66;103728.03;5070275;28;20047;-77
2022/03/19 09:53:25;;;;;;;9.13;2.45;;;;;;;13.18;30.10;103726.31;5052907;28;20120;-77
2022/03/19 09:56:10;;;;;;;10.88;3.15;;;;;;;14.17;29.18;103726.56;5073742;28;20072;-77
2022/03/19 09:58:36;;;;;;;14.68;2.92;;;;;;;13.68;29.66;103730.03;5074132;28;20094;-75
2022/03/19 10:01:06;;;;;;;13.13;2.80;;;;;;;14.39;28.57;103728.59;5056851;28;20131;-75
2022/03/19 10:03:39;;;;;;;11.20;3.20;;;;;;;12.97;30.35;103722.34;5074252;28;20068;-75
2022/03/19 10:08:58;;;;;;;11.55;3.40;;;;;;;13.49;29.66;103714.28;5074177;28;20056;-75
2022/03/19 10:11:35;;;;;;;15.40;3.47;;;;;;;14.03;28.70;103721.28;5074165;28;20403;-76
2022/03/19 10:14:08;;;;;;;15.82;4.05;;;;;;;13.07;30.42;103718.06;5074130;28;20408;-76
2022/03/19 10:16:36;;;;;;;30.10;3.28;;;;;;;12.74;30.35;103719.34;5033554;28;20068;-76
2022/03/19 10:19:06;;;;;;;12.23;2.63;;;;;;;12.83;30.67;103716.06;5033134;28;20081;-76
2022/03/19 10:21:40;;;;;;;18.67;2.50;;;;;;;12.74;30.75;103718.47;5033351;28;20411;-76
2022/03/19 10:24:28;;;;;;;16.58;3.45;;;;;;;12.15;31.66;103724.06;5029691;28;20084;-76
2022/03/19 10:26:55;;;;;;;11.35;2.85;;;;;;;12.94;30.44;103717.16;5033756;28;20374;-76
2022/03/19 10:29:33;;;;;;;14.45;2.78;;;;;;;11.90;32.09;103698.72;5030504;28;20045;-76
2022/03/19 10:32:04;;;;;;;16.75;3.00;;;;;;;11.66;31.42;103714.53;5033726;28;20041;-76
2022/03/19 10:34:31;;;;;;;11.15;3.20;;;;;;;11.51;31.46;103714.56;5032769;28;20095;-76
2022/03/19 10:36:58;;;;;;;9.45;3.00;;;;;;;10.87;32.52;103714.75;5033380;28;20077;-76
2022/03/19 10:39:26;;;;;;;16.13;3.10;;;;;;;10.57;32.77;103713.84;5034002;28;20394;-76
2022/03/19 10:41:55;;;;;;;22.17;3.47;;;;;;;10.60;32.71;103717.22;5029645;28;20041;-75
2022/03/19 10:44:27;;;;;;;14.45;2.83;;;;;;;11.20;32.39;103703.84;5033595;28;20045;-75
2022/03/19 10:46:55;;;;;;;12.80;3.10;;;;;;;10.95;32.55;103693.69;5033578;28;20121;-74
2022/03/19 10:49:24;;;;;;;16.05;3.22;;;;;;;11.16;32.22;103704.97;5033678;28;20287;-74
2022/03/19 10:51:54;;;;;;;14.10;4.20;;;;;;;11.52;31.76;103692.09;5034052;28;20247;-74
2022/03/19 10:54:22;;;;;;;10.20;3.38;;;;;;;11.24;32.54;103699.16;5034763;28;20046;-74
2022/03/19 10:56:50;;;;;;;13.60;4.45;;;;;;;11.93;31.40;103703.91;5034357;28;20091;-73
2022/03/19 10:59:17;;;;;;;18.50;3.70;;;;;;;11.99;31.26;103701.78;5033129;28;21224;-74
2022/03/19 11:01:43;;;;;;;13.85;3.33;;;;;;;11.52;32.30;103698.38;5033558;28;20068;-74
2022/03/19 11:04:11;;;;;;;15.77;3.90;;;;;;;11.92;31.66;103699.47;5033422;28;20382;-73
2022/03/19 11:06:43;;;;;;;16.27;3.65;;;;;;;11.95;31.35;103694.84;5033836;28;20041;-73
2022/03/19 11:09:13;;;;;;;10.30;3.63;;;;;;;11.53;31.77;103688.47;5032362;28;20045;-74
2022/03/19 11:11:46;;;;;;;16.60;4.30;;;;;;;10.66;33.63;103694.53;5033752;28;20065;-76
2022/03/19 11:14:22;;;;;;;18.42;3.95;;;;;;;11.08;33.38;103688.47;5036346;28;20049;-75
2022/03/19 11:17:23;;;;;;;14.13;4.35;;;;;;;11.09;33.66;103684.81;5074581;28;20045;-75
2022/03/19 11:19:43;;;;;;;14.98;3.90;;;;;;;10.65;34.30;103679.34;5071013;28;20117;-76
2022/03/19 11:22:14;;;;;;;14.68;4.20;;;;;;;11.01;33.89;103681.72;5071986;28;20056;-74
2022/03/19 11:24:48;;;;;;;13.45;4.53;;;;;;;10.37;34.74;103680.88;5073066;28;20075;-73
2022/03/19 11:27:15;;;;;;;20.77;4.43;;;;;;;10.91;33.91;103680.53;5067545;28;20052;-73
2022/03/19 11:29:42;;;;;;;14.60;5.40;;;;;;;11.01;33.73;103667.44;5055154;28;20068;-74
2022/03/19 11:32:20;;;;;;;12.75;4.40;;;;;;;10.99;33.72;103671.06;5052138;28;20041;-74
2022/03/19 11:34:48;;;;;;;15.25;4.43;;;;;;;12.20;31.98;103673.47;5053475;28;20487;-74
2022/03/19 11:37:14;;;;;;;22.70;5.55;;;;;;;10.66;34.20;103667.69;5053535;28;20076;-73
2022/03/19 11:40:00;;;;;;;19.63;5.88;;;;;;;10.70;34.19;103670.09;5053556;28;20044;-74
2022/03/19 11:42:31;;;;;;;14.95;6.43;;;;;;;10.81;34.35;103666.78;5053943;28;20116;-74
2022/03/19 11:45:09;;;;;;;16.98;6.32;;;;;;;10.60;34.61;103668.03;5051877;28;20077;-74